createdAt,value
2018-09-07T00:00:24.211Z,0.00
2018-09-07T00:00:59.995Z,0.00
2018-09-07T00:01:35.247Z,0.00
2018-09-07T00:02:10.848Z,0.00
2018-09-07T00:02:46.284Z,0.00
2018-09-07T00:03:21.686Z,0.00
2018-09-07T00:03:57.140Z,0.00
2018-09-07T00:04:32.586Z,0.00
2018-09-07T00:05:07.910Z,0.00
2018-09-07T00:05:43.312Z,0.00
2018-09-07T00:06:18.553Z,0.00
2018-09-07T00:06:53.848Z,0.00
2018-09-07T00:07:28.995Z,0.00
2018-09-07T00:08:04.298Z,0.00
2018-09-07T00:08:39.520Z,0.00
2018-09-07T00:09:14.657Z,0.00
2018-09-07T00:09:49.921Z,0.00
2018-09-07T00:10:25.131Z,0.00
2018-09-07T00:11:00.467Z,0.00
2018-09-07T00:11:36.362Z,0.00
2018-09-07T00:12:11.706Z,0.00
2018-09-07T00:12:47.114Z,0.00
2018-09-07T00:13:22.451Z,0.00
2018-09-07T00:13:57.658Z,0.00
2018-09-07T00:14:33.184Z,0.00
2018-09-07T00:15:08.435Z,0.00
2018-09-07T00:15:43.690Z,0.00
2018-09-07T00:16:19.303Z,0.00
2018-09-07T00:16:54.728Z,0.00
2018-09-07T00:17:30.036Z,0.00
2018-09-07T00:18:05.674Z,0.00
2018-09-07T00:18:40.985Z,0.00
2018-09-07T00:19:16.330Z,0.00
2018-09-07T00:19:51.846Z,0.00
2018-09-07T00:20:27.312Z,0.00
2018-09-07T00:21:02.718Z,0.00
2018-09-07T00:21:37.966Z,0.00
2018-09-07T00:22:13.392Z,0.00
2018-09-07T00:22:48.850Z,0.00
2018-09-07T00:23:24.151Z,0.00
2018-09-07T00:23:59.813Z,0.00
2018-09-07T00:24:35.014Z,0.00
2018-09-07T00:25:10.473Z,0.00
2018-09-07T00:25:45.615Z,0.00
2018-09-07T00:26:20.959Z,0.00
2018-09-07T00:26:56.178Z,0.00
2018-09-07T00:27:31.508Z,0.00
2018-09-07T00:28:07.106Z,0.00
2018-09-07T00:28:42.535Z,0.00
2018-09-07T00:29:17.942Z,0.00
2018-09-07T00:29:53.252Z,0.00
2018-09-07T00:30:28.258Z,0.00
2018-09-07T00:31:03.721Z,0.00
2018-09-07T00:31:39.243Z,0.00
2018-09-07T00:32:14.787Z,0.00
2018-09-07T00:32:50.090Z,0.00
2018-09-07T00:33:25.427Z,0.00
2018-09-07T00:34:00.833Z,0.00
2018-09-07T00:34:36.273Z,0.00
2018-09-07T00:35:11.868Z,0.00
2018-09-07T00:35:47.083Z,0.00
2018-09-07T00:36:22.724Z,0.00
2018-09-07T00:36:58.059Z,0.00
2018-09-07T00:37:33.359Z,0.00
2018-09-07T00:38:08.681Z,0.00
2018-09-07T00:38:44.076Z,0.00
2018-09-07T00:39:19.822Z,0.00
2018-09-07T00:39:55.133Z,0.00
2018-09-07T00:40:30.398Z,0.00
2018-09-07T00:41:05.599Z,0.00
2018-09-07T00:41:41.062Z,0.00
2018-09-07T00:42:16.256Z,0.00
2018-09-07T00:42:51.698Z,0.00
2018-09-07T00:43:27.307Z,0.00
2018-09-07T00:44:02.629Z,0.00
2018-09-07T00:44:37.842Z,0.00
2018-09-07T00:45:13.053Z,0.00
2018-09-07T00:45:48.455Z,0.00
2018-09-07T00:46:23.686Z,0.00
2018-09-07T00:46:59.210Z,0.00
2018-09-07T00:47:34.324Z,0.00
2018-09-07T00:48:09.726Z,0.00
2018-09-07T00:48:44.870Z,0.00
2018-09-07T00:49:20.065Z,0.00
2018-09-07T00:49:55.406Z,0.00
2018-09-07T00:50:30.808Z,0.00
2018-09-07T00:51:06.045Z,0.00
2018-09-07T00:51:41.426Z,0.00
2018-09-07T00:52:16.799Z,0.00
2018-09-07T00:52:51.799Z,0.00
2018-09-07T00:53:27.110Z,0.00
2018-09-07T00:54:02.424Z,0.00
2018-09-07T00:54:37.960Z,0.00
2018-09-07T00:55:13.475Z,0.00
2018-09-07T00:55:49.107Z,0.00
2018-09-07T00:56:24.308Z,0.00
2018-09-07T00:56:59.723Z,0.00
2018-09-07T00:57:35.165Z,0.00
2018-09-07T00:58:10.799Z,0.00
2018-09-07T00:58:45.979Z,0.00
2018-09-07T00:59:21.118Z,0.00
2018-09-07T00:59:56.317Z,0.00
2018-09-07T01:00:31.550Z,0.00
2018-09-07T01:01:06.753Z,0.00
2018-09-07T01:01:42.079Z,0.00
2018-09-07T01:02:17.596Z,0.00
2018-09-07T01:02:53.027Z,0.00
2018-09-07T01:03:28.526Z,0.00
2018-09-07T01:04:03.758Z,0.00
2018-09-07T01:04:39.350Z,0.00
2018-09-07T01:05:14.800Z,0.00
2018-09-07T01:05:50.314Z,0.00
2018-09-07T01:06:25.857Z,0.00
2018-09-07T01:07:01.161Z,0.00
2018-09-07T01:07:36.392Z,0.00
2018-09-07T01:08:11.716Z,0.00
2018-09-07T01:08:46.943Z,0.00
2018-09-07T01:09:22.251Z,0.00
2018-09-07T01:09:57.688Z,0.00
2018-09-07T01:10:33.287Z,0.00
2018-09-07T01:11:08.516Z,0.00
2018-09-07T01:11:43.707Z,0.00
2018-09-07T01:12:19.035Z,0.00
2018-09-07T01:12:54.577Z,0.00
2018-09-07T01:13:30.297Z,0.00
2018-09-07T01:14:05.577Z,0.00
2018-09-07T01:14:40.703Z,0.00
2018-09-07T01:15:15.852Z,0.00
2018-09-07T01:15:51.184Z,0.00
2018-09-07T01:16:26.589Z,0.00
2018-09-07T01:17:01.914Z,0.00
2018-09-07T01:17:37.100Z,0.00
2018-09-07T01:18:12.426Z,0.00
2018-09-07T01:18:47.776Z,0.00
2018-09-07T01:19:22.992Z,0.00
2018-09-07T01:19:58.393Z,0.00
2018-09-07T01:20:33.820Z,0.00
2018-09-07T01:21:09.115Z,0.00
2018-09-07T01:21:44.642Z,0.00
2018-09-07T01:22:19.950Z,0.00
2018-09-07T01:22:55.372Z,0.00
2018-09-07T01:23:30.467Z,0.00
2018-09-07T01:24:06.041Z,0.00
2018-09-07T01:24:41.446Z,0.00
2018-09-07T01:25:16.568Z,0.00
2018-09-07T01:25:51.969Z,0.00
2018-09-07T01:26:27.285Z,0.00
2018-09-07T01:27:02.791Z,0.00
2018-09-07T01:27:38.314Z,0.00
2018-09-07T01:28:13.828Z,0.00
2018-09-07T01:28:49.248Z,0.00
2018-09-07T01:29:24.958Z,0.00
2018-09-07T01:30:00.398Z,0.00
2018-09-07T01:30:35.791Z,0.00
2018-09-07T01:31:11.031Z,0.00
2018-09-07T01:31:46.328Z,0.00
2018-09-07T01:32:21.735Z,0.00
2018-09-07T01:32:57.129Z,0.00
2018-09-07T01:33:32.446Z,0.00
2018-09-07T01:34:07.650Z,0.00
2018-09-07T01:34:43.300Z,0.00
2018-09-07T01:35:18.619Z,0.00
2018-09-07T01:35:54.052Z,0.00
2018-09-07T01:36:29.457Z,0.00
2018-09-07T01:37:04.885Z,0.00
2018-09-07T01:37:40.477Z,0.00
2018-09-07T01:38:16.108Z,0.00
2018-09-07T01:38:51.416Z,0.00
2018-09-07T01:39:26.633Z,0.00
2018-09-07T01:40:02.182Z,0.00
2018-09-07T01:40:37.442Z,0.00
2018-09-07T01:41:12.651Z,0.00
2018-09-07T01:41:48.185Z,0.00
2018-09-07T01:42:23.264Z,0.00
2018-09-07T01:42:58.712Z,0.00
2018-09-07T01:43:33.804Z,0.00
2018-09-07T01:44:09.152Z,0.00
2018-09-07T01:44:44.454Z,0.00
2018-09-07T01:45:19.809Z,0.00
2018-09-07T01:45:55.122Z,0.00
2018-09-07T01:46:30.542Z,0.00
2018-09-07T01:47:05.739Z,0.00
2018-09-07T01:47:41.090Z,0.00
2018-09-07T01:48:16.067Z,0.00
2018-09-07T01:48:51.208Z,0.00
2018-09-07T01:49:26.528Z,0.00
2018-09-07T01:50:01.960Z,0.00
2018-09-07T01:50:37.520Z,0.00
2018-09-07T01:51:13.060Z,0.00
2018-09-07T01:51:48.261Z,0.00
2018-09-07T01:52:23.494Z,0.00
2018-09-07T01:52:58.688Z,0.00
2018-09-07T01:53:34.019Z,0.00
2018-09-07T01:54:09.109Z,0.00
2018-09-07T01:54:44.541Z,0.00
2018-09-07T01:55:20.048Z,0.00
2018-09-07T01:55:55.501Z,0.00
2018-09-07T01:56:30.997Z,0.00
2018-09-07T01:57:06.310Z,0.00
2018-09-07T01:57:41.520Z,0.00
2018-09-07T01:58:16.834Z,0.00
2018-09-07T01:58:52.341Z,0.00
2018-09-07T01:59:27.577Z,0.00
2018-09-07T02:00:03.285Z,0.00
2018-09-07T02:00:39.404Z,0.00
2018-09-07T02:01:15.120Z,0.00
2018-09-07T02:01:50.757Z,0.00
2018-09-07T02:02:26.061Z,0.00
2018-09-07T02:03:01.400Z,0.00
2018-09-07T02:03:36.697Z,0.00
2018-09-07T02:04:11.924Z,0.00
2018-09-07T02:04:47.113Z,0.00
2018-09-07T02:05:22.323Z,0.00
2018-09-07T02:05:57.542Z,0.00
2018-09-07T02:06:32.879Z,0.00
2018-09-07T02:07:08.272Z,0.00
2018-09-07T02:07:44.189Z,0.00
2018-09-07T02:08:19.681Z,0.00
2018-09-07T02:08:55.015Z,0.00
2018-09-07T02:09:30.208Z,0.00
2018-09-07T02:10:05.522Z,0.00
2018-09-07T02:10:40.940Z,0.00
2018-09-07T02:11:16.361Z,0.00
2018-09-07T02:11:51.583Z,0.00
2018-09-07T02:12:26.811Z,0.00
2018-09-07T02:13:02.310Z,0.00
2018-09-07T02:13:37.832Z,0.00
2018-09-07T02:14:13.113Z,0.00
2018-09-07T02:14:48.336Z,0.00
2018-09-07T02:15:23.928Z,0.00
2018-09-07T02:15:59.333Z,0.00
2018-09-07T02:16:34.726Z,0.00
2018-09-07T02:17:10.183Z,0.00
2018-09-07T02:17:45.700Z,0.00
2018-09-07T02:18:20.916Z,0.00
2018-09-07T02:18:56.228Z,0.00
2018-09-07T02:19:31.552Z,0.00
2018-09-07T02:20:07.145Z,0.00
2018-09-07T02:20:42.772Z,0.00
2018-09-07T02:21:18.484Z,0.00
2018-09-07T02:21:53.717Z,0.00
2018-09-07T02:22:29.252Z,0.00
2018-09-07T02:23:04.568Z,0.00
2018-09-07T02:23:40.076Z,0.00
2018-09-07T02:24:15.407Z,0.00
2018-09-07T02:24:50.485Z,0.00
2018-09-07T02:25:25.911Z,0.00
2018-09-07T02:26:01.020Z,0.00
2018-09-07T02:26:36.448Z,0.00
2018-09-07T02:27:11.744Z,0.00
2018-09-07T02:27:46.996Z,0.00
2018-09-07T02:28:22.071Z,0.00
2018-09-07T02:28:57.482Z,0.00
2018-09-07T02:29:32.585Z,0.00
2018-09-07T02:30:08.321Z,0.00
2018-09-07T02:30:43.510Z,0.00
2018-09-07T02:31:18.946Z,0.00
2018-09-07T02:31:54.044Z,0.00
2018-09-07T02:32:29.465Z,0.00
2018-09-07T02:33:04.691Z,0.00
2018-09-07T02:33:40.037Z,0.00
2018-09-07T02:34:15.449Z,0.00
2018-09-07T02:34:50.879Z,0.00
2018-09-07T02:35:26.377Z,0.00
2018-09-07T02:36:01.797Z,0.00
2018-09-07T02:36:37.284Z,0.00
2018-09-07T02:37:12.509Z,0.00
2018-09-07T02:37:47.694Z,0.00
2018-09-07T02:38:23.443Z,0.00
2018-09-07T02:38:58.623Z,0.00
2018-09-07T02:39:34.243Z,0.00
2018-09-07T02:40:09.528Z,0.00
2018-09-07T02:40:45.036Z,0.00
2018-09-07T02:41:20.527Z,0.00
2018-09-07T02:41:55.850Z,0.00
2018-09-07T02:42:30.952Z,0.00
2018-09-07T02:43:06.279Z,0.00
2018-09-07T02:43:41.411Z,0.00
2018-09-07T02:44:16.640Z,0.00
2018-09-07T02:44:52.044Z,0.00
2018-09-07T02:45:27.259Z,0.00
2018-09-07T02:46:02.539Z,0.00
2018-09-07T02:46:37.675Z,0.00
2018-09-07T02:47:12.890Z,0.00
2018-09-07T02:47:48.426Z,0.00
2018-09-07T02:48:23.722Z,0.00
2018-09-07T02:48:59.086Z,0.00
2018-09-07T02:49:34.286Z,0.00
2018-09-07T02:50:09.786Z,0.00
2018-09-07T02:50:45.093Z,0.00
2018-09-07T02:51:20.422Z,0.00
2018-09-07T02:51:55.923Z,0.00
2018-09-07T02:52:31.148Z,0.00
2018-09-07T02:53:06.532Z,0.00
2018-09-07T02:53:41.649Z,0.00
2018-09-07T02:54:17.278Z,0.00
2018-09-07T02:54:52.606Z,0.00
2018-09-07T02:55:28.086Z,0.00
2018-09-07T02:56:03.408Z,0.00
2018-09-07T02:56:38.906Z,0.00
2018-09-07T02:57:14.123Z,0.00
2018-09-07T02:57:49.825Z,0.00
2018-09-07T02:58:25.034Z,0.00
2018-09-07T02:59:00.443Z,0.00
2018-09-07T02:59:35.890Z,0.00
2018-09-07T03:00:11.184Z,0.00
2018-09-07T03:00:46.711Z,0.00
2018-09-07T03:01:22.218Z,0.00
2018-09-07T03:01:57.627Z,0.00
2018-09-07T03:02:33.317Z,0.00
2018-09-07T03:03:08.639Z,0.00
2018-09-07T03:03:44.353Z,0.00
2018-09-07T03:04:19.890Z,0.00
2018-09-07T03:04:55.430Z,0.00
2018-09-07T03:05:31.065Z,0.00
2018-09-07T03:06:06.477Z,0.00
2018-09-07T03:06:41.893Z,0.00
2018-09-07T03:07:17.102Z,0.00
2018-09-07T03:07:52.411Z,0.00
2018-09-07T03:08:27.622Z,0.00
2018-09-07T03:09:02.863Z,0.00
2018-09-07T03:09:38.169Z,0.00
2018-09-07T03:10:13.333Z,0.00
2018-09-07T03:10:48.738Z,0.00
2018-09-07T03:11:24.078Z,0.00
2018-09-07T03:11:59.262Z,0.00
2018-09-07T03:12:34.623Z,0.00
2018-09-07T03:13:09.931Z,0.00
2018-09-07T03:13:45.600Z,0.00
2018-09-07T03:14:20.810Z,0.00
2018-09-07T03:14:56.033Z,0.00
2018-09-07T03:15:31.556Z,0.00
2018-09-07T03:16:06.964Z,0.00
2018-09-07T03:16:42.355Z,0.00
2018-09-07T03:17:17.288Z,0.00
2018-09-07T03:17:52.470Z,0.00
2018-09-07T03:18:27.888Z,0.00
2018-09-07T03:19:03.274Z,0.00
2018-09-07T03:19:38.486Z,0.00
2018-09-07T03:20:13.876Z,0.00
2018-09-07T03:20:49.631Z,0.00
2018-09-07T03:21:25.120Z,0.00
2018-09-07T03:22:00.355Z,0.00
2018-09-07T03:22:35.867Z,0.00
2018-09-07T03:23:11.328Z,0.00
2018-09-07T03:23:46.384Z,0.00
2018-09-07T03:24:21.708Z,0.00
2018-09-07T03:24:56.919Z,0.00
2018-09-07T03:25:32.233Z,0.00
2018-09-07T03:26:07.539Z,0.00
2018-09-07T03:26:42.789Z,0.00
2018-09-07T03:27:18.187Z,0.00
2018-09-07T03:27:53.694Z,0.00
2018-09-07T03:28:29.303Z,0.00
2018-09-07T03:29:04.612Z,0.00
2018-09-07T03:29:39.829Z,0.00
2018-09-07T03:30:15.168Z,0.00
2018-09-07T03:30:50.560Z,0.00
2018-09-07T03:31:25.922Z,0.00
2018-09-07T03:32:01.223Z,0.00
2018-09-07T03:32:36.545Z,0.00
2018-09-07T03:33:11.924Z,0.00
2018-09-07T03:33:47.351Z,0.00
2018-09-07T03:34:22.944Z,0.00
2018-09-07T03:34:58.453Z,0.00
2018-09-07T03:35:33.851Z,0.00
2018-09-07T03:36:09.473Z,0.00
2018-09-07T03:36:44.628Z,0.00
2018-09-07T03:37:19.963Z,0.00
2018-09-07T03:37:55.164Z,0.00
2018-09-07T03:38:30.779Z,0.00
2018-09-07T03:39:06.285Z,0.00
2018-09-07T03:39:41.624Z,0.00
2018-09-07T03:40:17.139Z,0.00
2018-09-07T03:40:52.342Z,0.00
2018-09-07T03:41:27.444Z,0.00
2018-09-07T03:42:02.897Z,0.00
2018-09-07T03:42:38.434Z,0.00
2018-09-07T03:43:13.724Z,0.00
2018-09-07T03:43:49.222Z,0.00
2018-09-07T03:44:24.754Z,0.00
2018-09-07T03:45:00.451Z,0.00
2018-09-07T03:45:35.771Z,0.00
2018-09-07T03:46:10.968Z,0.00
2018-09-07T03:46:46.387Z,0.00
2018-09-07T03:47:21.599Z,0.00
2018-09-07T03:47:56.712Z,0.00
2018-09-07T03:48:31.892Z,0.00
2018-09-07T03:49:07.314Z,0.00
2018-09-07T03:49:42.612Z,0.00
2018-09-07T03:50:17.843Z,0.00
2018-09-07T03:50:53.092Z,0.00
2018-09-07T03:51:28.661Z,0.00
2018-09-07T03:52:03.845Z,0.00
2018-09-07T03:52:39.321Z,0.00
2018-09-07T03:53:14.718Z,0.00
2018-09-07T03:53:49.948Z,0.00
2018-09-07T03:54:25.447Z,0.00
2018-09-07T03:55:00.870Z,0.00
2018-09-07T03:55:36.171Z,0.00
2018-09-07T03:56:11.583Z,0.00
2018-09-07T03:56:47.076Z,0.00
2018-09-07T03:57:22.595Z,0.00
2018-09-07T03:57:58.107Z,0.00
2018-09-07T03:58:33.337Z,0.00
2018-09-07T03:59:08.843Z,0.00
2018-09-07T03:59:44.343Z,0.00
2018-09-07T04:00:19.627Z,0.00
2018-09-07T04:00:54.769Z,0.00
2018-09-07T04:01:30.153Z,0.00
2018-09-07T04:02:05.583Z,0.00
2018-09-07T04:02:41.178Z,0.00
2018-09-07T04:03:16.626Z,0.00
2018-09-07T04:03:52.040Z,0.00
2018-09-07T04:04:27.267Z,0.00
2018-09-07T04:05:02.450Z,0.00
2018-09-07T04:05:37.976Z,0.00
2018-09-07T04:06:13.261Z,0.00
2018-09-07T04:06:48.673Z,0.00
2018-09-07T04:07:23.990Z,0.00
2018-09-07T04:07:59.309Z,0.00
2018-09-07T04:08:34.522Z,0.00
2018-09-07T04:09:09.826Z,0.00
2018-09-07T04:09:45.422Z,0.00
2018-09-07T04:10:20.732Z,0.00
2018-09-07T04:10:55.936Z,0.00
2018-09-07T04:11:31.269Z,0.00
2018-09-07T04:12:06.668Z,0.00
2018-09-07T04:12:41.801Z,0.00
2018-09-07T04:13:16.989Z,0.00
2018-09-07T04:13:52.226Z,0.00
2018-09-07T04:14:27.613Z,0.00
2018-09-07T04:15:03.041Z,0.00
2018-09-07T04:15:38.730Z,0.00
2018-09-07T04:16:14.152Z,0.00
2018-09-07T04:16:49.640Z,0.00
2018-09-07T04:17:24.962Z,0.00
2018-09-07T04:18:00.059Z,0.00
2018-09-07T04:18:35.385Z,0.00
2018-09-07T04:19:10.610Z,0.00
2018-09-07T04:19:46.034Z,0.00
2018-09-07T04:20:21.261Z,0.00
2018-09-07T04:20:56.769Z,0.00
2018-09-07T04:21:32.253Z,0.00
2018-09-07T04:22:07.686Z,0.00
2018-09-07T04:22:42.879Z,0.00
2018-09-07T04:23:18.301Z,0.00
2018-09-07T04:23:53.800Z,0.00
2018-09-07T04:24:29.047Z,0.00
2018-09-07T04:25:04.253Z,0.00
2018-09-07T04:25:39.495Z,0.00
2018-09-07T04:26:15.172Z,0.00
2018-09-07T04:26:50.393Z,0.00
2018-09-07T04:27:25.910Z,0.00
2018-09-07T04:28:01.035Z,0.00
2018-09-07T04:28:36.032Z,4.00
2018-09-07T04:29:11.443Z,4.00
2018-09-07T04:29:46.668Z,4.00
2018-09-07T04:30:22.005Z,4.00
2018-09-07T04:30:57.328Z,4.00
2018-09-07T04:31:32.756Z,4.00
2018-09-07T04:32:08.138Z,4.00
2018-09-07T04:32:43.263Z,4.00
2018-09-07T04:33:18.452Z,8.00
2018-09-07T04:33:53.854Z,8.00
2018-09-07T04:34:29.155Z,8.00
2018-09-07T04:35:04.501Z,12.00
2018-09-07T04:35:39.499Z,8.00
2018-09-07T04:36:14.807Z,12.00
2018-09-07T04:36:50.400Z,8.00
2018-09-07T04:37:25.740Z,12.00
2018-09-07T04:38:00.945Z,8.00
2018-09-07T04:38:36.358Z,12.00
2018-09-07T04:39:11.763Z,12.00
2018-09-07T04:39:47.397Z,16.00
2018-09-07T04:40:22.822Z,20.00
2018-09-07T04:40:58.085Z,20.00
2018-09-07T04:41:33.423Z,20.00
2018-09-07T04:42:08.745Z,24.00
2018-09-07T04:42:44.133Z,20.00
2018-09-07T04:43:19.458Z,24.00
2018-09-07T04:43:54.648Z,24.00
2018-09-07T04:44:29.886Z,28.00
2018-09-07T04:45:05.283Z,32.00
2018-09-07T04:45:40.635Z,36.00
2018-09-07T04:46:16.131Z,36.00
2018-09-07T04:46:51.465Z,36.00
2018-09-07T04:47:26.767Z,40.00
2018-09-07T04:48:02.272Z,40.00
2018-09-07T04:48:37.639Z,48.00
2018-09-07T04:49:13.016Z,48.00
2018-09-07T04:49:48.431Z,56.00
2018-09-07T04:50:23.506Z,68.00
2018-09-07T04:50:58.824Z,76.00
2018-09-07T04:51:34.427Z,84.00
2018-09-07T04:52:09.913Z,88.00
2018-09-07T04:52:45.516Z,96.00
2018-09-07T04:53:21.013Z,104.00
2018-09-07T04:53:56.124Z,112.00
2018-09-07T04:54:31.623Z,116.00
2018-09-07T04:55:06.743Z,124.00
2018-09-07T04:55:42.154Z,132.00
2018-09-07T04:56:17.398Z,136.00
2018-09-07T04:56:52.785Z,144.00
2018-09-07T04:57:27.945Z,148.00
2018-09-07T04:58:03.273Z,152.00
2018-09-07T04:58:38.516Z,160.00
2018-09-07T04:59:13.798Z,160.00
2018-09-07T04:59:49.225Z,172.00
2018-09-07T05:00:24.512Z,180.00
2018-09-07T05:01:00.143Z,188.00
2018-09-07T05:01:35.775Z,196.00
2018-09-07T05:02:11.401Z,192.00
2018-09-07T05:02:46.509Z,188.00
2018-09-07T05:03:21.941Z,188.00
2018-09-07T05:03:57.332Z,224.00
2018-09-07T05:04:33.264Z,248.00
2018-09-07T05:05:08.751Z,260.00
2018-09-07T05:05:44.084Z,268.00
2018-09-07T05:06:19.462Z,284.00
2018-09-07T05:06:54.819Z,276.00
2018-09-07T05:07:30.013Z,300.00
2018-09-07T05:08:05.439Z,280.00
2018-09-07T05:08:40.826Z,308.00
2018-09-07T05:09:16.145Z,324.00
2018-09-07T05:09:51.335Z,360.00
2018-09-07T05:10:26.739Z,380.00
2018-09-07T05:11:02.035Z,360.00
2018-09-07T05:11:37.447Z,336.00
2018-09-07T05:12:12.672Z,372.00
2018-09-07T05:12:48.006Z,388.00
2018-09-07T05:13:23.310Z,400.00
2018-09-07T05:13:58.735Z,392.00
2018-09-07T05:14:34.046Z,400.00
2018-09-07T05:15:09.378Z,432.00
2018-09-07T05:15:44.789Z,428.00
2018-09-07T05:16:20.115Z,424.00
2018-09-07T05:16:55.624Z,412.00
2018-09-07T05:17:30.979Z,400.00
2018-09-07T05:18:06.384Z,408.00
2018-09-07T05:18:41.606Z,416.00
2018-09-07T05:19:16.809Z,396.00
2018-09-07T05:19:52.348Z,388.00
2018-09-07T05:20:27.744Z,384.00
2018-09-07T05:21:03.095Z,396.00
2018-09-07T05:21:38.277Z,396.00
2018-09-07T05:22:13.585Z,412.00
2018-09-07T05:22:48.725Z,436.00
2018-09-07T05:23:24.250Z,432.00
2018-09-07T05:23:59.336Z,424.00
2018-09-07T05:24:34.758Z,420.00
2018-09-07T05:25:09.965Z,420.00
2018-09-07T05:25:45.268Z,412.00
2018-09-07T05:26:20.481Z,404.00
2018-09-07T05:26:55.515Z,404.00
2018-09-07T05:27:30.625Z,408.00
2018-09-07T05:28:05.972Z,408.00
2018-09-07T05:28:41.158Z,408.00
2018-09-07T05:29:16.491Z,408.00
2018-09-07T05:29:51.871Z,400.00
2018-09-07T05:30:27.202Z,392.00
2018-09-07T05:31:02.503Z,388.00
2018-09-07T05:31:37.981Z,388.00
2018-09-07T05:32:13.005Z,392.00
2018-09-07T05:32:48.210Z,388.00
2018-09-07T05:33:23.460Z,392.00
2018-09-07T05:33:58.869Z,396.00
2018-09-07T05:34:34.253Z,400.00
2018-09-07T05:35:09.790Z,400.00
2018-09-07T05:35:44.983Z,412.00
2018-09-07T05:36:20.500Z,420.00
2018-09-07T05:36:55.798Z,436.00
2018-09-07T05:37:31.010Z,444.00
2018-09-07T05:38:06.306Z,460.00
2018-09-07T05:38:41.342Z,480.00
2018-09-07T05:39:16.762Z,500.00
2018-09-07T05:39:52.259Z,536.00
2018-09-07T05:40:27.857Z,592.00
2018-09-07T05:41:03.170Z,700.00
2018-09-07T05:41:38.391Z,824.00
2018-09-07T05:42:13.715Z,920.00
2018-09-07T05:42:49.211Z,972.00
2018-09-07T05:43:24.831Z,988.00
2018-09-07T05:44:00.362Z,1048.00
2018-09-07T05:44:35.810Z,1112.00
2018-09-07T05:45:10.915Z,1164.00
2018-09-07T05:45:46.147Z,1184.00
2018-09-07T05:46:21.444Z,1244.00
2018-09-07T05:46:56.664Z,1292.00
2018-09-07T05:47:31.651Z,1308.00
2018-09-07T05:48:07.090Z,1328.00
2018-09-07T05:48:42.568Z,1344.00
2018-09-07T05:49:18.034Z,1392.00
2018-09-07T05:49:53.392Z,1432.00
2018-09-07T05:50:28.836Z,1432.00
2018-09-07T05:51:04.217Z,1476.00
2018-09-07T05:51:39.734Z,1492.00
2018-09-07T05:52:14.906Z,1512.00
2018-09-07T05:52:50.414Z,1504.00
2018-09-07T05:53:25.810Z,1512.00
2018-09-07T05:54:01.349Z,1536.00
2018-09-07T05:54:36.580Z,1564.00
2018-09-07T05:55:12.104Z,1604.00
2018-09-07T05:55:47.586Z,1680.00
2018-09-07T05:56:22.912Z,1700.00
2018-09-07T05:56:58.529Z,1748.00
2018-09-07T05:57:33.643Z,1804.00
2018-09-07T05:58:08.943Z,1816.00
2018-09-07T05:58:44.277Z,1800.00
2018-09-07T05:59:19.384Z,1800.00
2018-09-07T05:59:54.643Z,1696.00
2018-09-07T06:00:30.242Z,1580.00
2018-09-07T06:01:05.565Z,1484.00
2018-09-07T06:01:41.061Z,1396.00
2018-09-07T06:02:16.372Z,1312.00
2018-09-07T06:02:51.868Z,1256.00
2018-09-07T06:03:27.315Z,1180.00
2018-09-07T06:04:02.497Z,1040.00
2018-09-07T06:04:37.844Z,1000.00
2018-09-07T06:05:12.972Z,1028.00
2018-09-07T06:05:48.108Z,948.00
2018-09-07T06:06:23.394Z,1016.00
2018-09-07T06:06:58.912Z,1132.00
2018-09-07T06:07:34.406Z,1196.00
2018-09-07T06:08:09.817Z,1228.00
2018-09-07T06:08:45.126Z,1388.00
2018-09-07T06:09:20.476Z,1492.00
2018-09-07T06:09:55.874Z,1624.00
2018-09-07T06:10:31.737Z,1644.00
2018-09-07T06:11:07.048Z,1440.00
2018-09-07T06:11:42.467Z,1360.00
2018-09-07T06:12:17.641Z,1512.00
2018-09-07T06:12:52.955Z,1356.00
2018-09-07T06:13:28.436Z,1508.00
2018-09-07T06:14:03.559Z,1736.00
2018-09-07T06:14:38.767Z,1624.00
2018-09-07T06:15:14.381Z,1520.00
2018-09-07T06:15:49.538Z,2252.00
2018-09-07T06:16:24.858Z,2464.00
2018-09-07T06:17:00.050Z,2572.00
2018-09-07T06:17:35.575Z,2720.00
2018-09-07T06:18:10.692Z,2700.00
2018-09-07T06:18:46.133Z,2604.00
2018-09-07T06:19:21.538Z,2300.00
2018-09-07T06:19:57.162Z,2308.00
2018-09-07T06:20:32.757Z,2476.00
2018-09-07T06:21:08.320Z,2852.00
2018-09-07T06:21:43.635Z,3292.00
2018-09-07T06:22:18.652Z,3836.00
2018-09-07T06:22:53.869Z,4160.00
2018-09-07T06:23:29.103Z,4164.00
2018-09-07T06:24:04.787Z,4068.00
2018-09-07T06:24:40.200Z,4044.00
2018-09-07T06:25:15.503Z,4712.00
2018-09-07T06:25:50.827Z,5052.00
2018-09-07T06:26:26.043Z,4324.00
2018-09-07T06:27:01.380Z,4084.00
2018-09-07T06:27:36.673Z,3784.00
2018-09-07T06:28:12.110Z,2584.00
2018-09-07T06:28:47.501Z,2776.00
2018-09-07T06:29:23.223Z,2656.00
2018-09-07T06:29:58.633Z,2240.00
2018-09-07T06:30:33.939Z,2616.00
2018-09-07T06:31:09.227Z,2612.00
2018-09-07T06:31:44.485Z,2728.00
2018-09-07T06:32:19.805Z,2480.00
2018-09-07T06:32:55.129Z,2300.00
2018-09-07T06:33:30.327Z,2204.00
2018-09-07T06:34:05.730Z,1964.00
2018-09-07T06:34:41.001Z,2116.00
2018-09-07T06:35:16.310Z,2892.00
2018-09-07T06:35:51.716Z,3260.00
2018-09-07T06:36:27.063Z,3752.00
2018-09-07T06:37:02.519Z,4204.00
2018-09-07T06:37:37.804Z,3152.00
2018-09-07T06:38:13.104Z,2564.00
2018-09-07T06:38:48.490Z,2304.00
2018-09-07T06:39:24.016Z,1976.00
2018-09-07T06:39:59.165Z,1912.00
2018-09-07T06:40:34.959Z,1884.00
2018-09-07T06:41:10.298Z,1636.00
2018-09-07T06:41:45.511Z,1564.00
2018-09-07T06:42:21.073Z,1512.00
2018-09-07T06:42:56.551Z,1472.00
2018-09-07T06:43:32.373Z,1720.00
2018-09-07T06:44:07.604Z,1992.00
2018-09-07T06:44:42.716Z,3044.00
2018-09-07T06:45:18.018Z,2492.00
2018-09-07T06:45:53.231Z,2280.00
2018-09-07T06:46:28.440Z,2572.00
2018-09-07T06:47:03.902Z,2756.00
2018-09-07T06:47:39.590Z,2912.00
2018-09-07T06:48:15.200Z,4028.00
2018-09-07T06:48:50.711Z,4352.00
2018-09-07T06:49:25.821Z,4312.00
2018-09-07T06:50:01.034Z,3832.00
2018-09-07T06:50:36.374Z,4268.00
2018-09-07T06:51:11.658Z,4280.00
2018-09-07T06:51:47.091Z,4788.00
2018-09-07T06:52:22.496Z,5812.00
2018-09-07T06:52:58.145Z,5352.00
2018-09-07T06:53:33.544Z,3840.00
2018-09-07T06:54:08.885Z,4200.00
2018-09-07T06:54:44.066Z,4488.00
2018-09-07T06:55:19.700Z,5004.00
2018-09-07T06:55:54.999Z,8304.00
2018-09-07T06:56:30.533Z,6764.00
2018-09-07T06:57:06.037Z,6512.00
2018-09-07T06:57:41.653Z,5744.00
2018-09-07T06:58:17.282Z,6720.00
2018-09-07T06:58:52.705Z,6752.00
2018-09-07T06:59:27.907Z,7152.00
2018-09-07T07:00:03.387Z,7956.00
2018-09-07T07:00:39.263Z,6760.00
2018-09-07T07:01:14.479Z,5620.00
2018-09-07T07:01:49.954Z,4080.00
2018-09-07T07:02:25.398Z,2828.00
2018-09-07T07:03:00.731Z,2616.00
2018-09-07T07:03:35.928Z,2676.00
2018-09-07T07:04:11.325Z,2272.00
2018-09-07T07:04:46.545Z,2032.00
2018-09-07T07:05:22.169Z,1708.00
2018-09-07T07:05:57.496Z,1848.00
2018-09-07T07:06:33.205Z,1988.00
2018-09-07T07:07:08.429Z,2100.00
2018-09-07T07:07:43.822Z,2188.00
2018-09-07T07:08:19.210Z,2184.00
2018-09-07T07:08:54.473Z,2068.00
2018-09-07T07:09:30.095Z,1868.00
2018-09-07T07:10:05.703Z,1704.00
2018-09-07T07:10:41.148Z,1472.00
2018-09-07T07:11:16.332Z,1184.00
2018-09-07T07:11:51.837Z,1080.00
2018-09-07T07:12:27.039Z,1112.00
2018-09-07T07:13:02.452Z,1380.00
2018-09-07T07:13:37.867Z,2064.00
2018-09-07T07:14:13.222Z,2568.00
2018-09-07T07:14:48.807Z,2620.00
2018-09-07T07:15:24.167Z,2308.00
2018-09-07T07:15:59.560Z,1792.00
2018-09-07T07:16:34.916Z,1888.00
2018-09-07T07:17:10.208Z,1768.00
2018-09-07T07:17:45.637Z,2120.00
2018-09-07T07:18:20.940Z,2220.00
2018-09-07T07:18:56.068Z,2140.00
2018-09-07T07:19:31.384Z,1840.00
2018-09-07T07:20:06.700Z,2044.00
2018-09-07T07:20:42.021Z,2344.00
2018-09-07T07:21:17.448Z,2080.00
2018-09-07T07:21:52.742Z,1760.00
2018-09-07T07:22:28.077Z,1556.00
2018-09-07T07:23:03.332Z,1108.00
2018-09-07T07:23:38.720Z,984.00
2018-09-07T07:24:14.509Z,1052.00
2018-09-07T07:24:50.261Z,1240.00
2018-09-07T07:25:25.469Z,1244.00
2018-09-07T07:26:00.776Z,1056.00
2018-09-07T07:26:36.160Z,876.00
2018-09-07T07:27:11.690Z,864.00
2018-09-07T07:27:47.001Z,812.00
2018-09-07T07:28:22.405Z,724.00
2018-09-07T07:28:57.718Z,560.00
2018-09-07T07:29:33.053Z,512.00
2018-09-07T07:30:08.486Z,492.00
2018-09-07T07:30:43.820Z,424.00
2018-09-07T07:31:19.207Z,352.00
2018-09-07T07:31:54.734Z,320.00
2018-09-07T07:32:30.128Z,312.00
2018-09-07T07:33:05.749Z,328.00
2018-09-07T07:33:40.930Z,356.00
2018-09-07T07:34:16.364Z,428.00
2018-09-07T07:34:51.551Z,576.00
2018-09-07T07:35:26.906Z,724.00
2018-09-07T07:36:02.218Z,872.00